CheckWX is a tool to help pilots better visualize weather data.  It is not intended as a substitute for an official pre-flight weather briefing.

12:21:16 UTC

KSME METAR
Lake Cumberland Regional Airport
Somerset, Kentucky, USA
Current

26 mins ago

KSME 221155Z AUTO 05005KT 10SM OVC007 05/05 A3029 RMK AO2
Observed
Feb-22 @ 11:55 UTC
Wind
  • 050° at 5 KTS
Visibility
10 SM
Flight Rules
IFR
Cloud Levels
  • Overcast at 700' AGL
Temperature
C / 41°F
Dewpoint
C / 41°F
Humidity
100%
Altimeter
30.29" Hg
Pressure
1025.72 hPa
Previous

45 mins ago

KSME 221136Z AUTO 03007KT 10SM OVC007 05/05 A3028 RMK AO2
Observed
Feb-22 @ 11:36 UTC
Wind
  • 030° at 7 KTS
Visibility
10 SM
Flight Rules
IFR
Cloud Levels
  • Overcast at 700' AGL
Temperature
C / 41°F
Dewpoint
C / 41°F
Humidity
100%
Altimeter
30.28" Hg
Pressure
1025.42 hPa
Previous

1 hour ago

KSME 221116Z AUTO 01008KT 10SM OVC007 05/05 A3026 RMK AO2
Observed
Feb-22 @ 11:16 UTC
Wind
  • 010° at 8 KTS
Visibility
10 SM
Flight Rules
IFR
Cloud Levels
  • Overcast at 700' AGL
Temperature
C / 41°F
Dewpoint
C / 41°F
Humidity
100%
Altimeter
30.26" Hg
Pressure
1024.72 hPa